Boise, ID (83713)

6:31 PM MST on February 01, 2015 (GMT -0700)
Belmont parks | Change Station
CLOSE
Current Station
Personal Weather Station
Location: Boise, ID
Elevation: 2671 ft
Nearby Weather Stations

Elev 2671 ft 43.65 °N, 116.30 °W | Updated 8 seconds ago

Rain
Rain
39.9 °F
Feels Like 40 °F
N
0.0
Wind Variable Wind from East
Gusts 0.0 mph

Today
High -- | Low -- °F
--% Chance of Precip.
Yesterday
High -- | Low -- °F
Precip. -- in
8:01 AM 5:56 PM
Waxing Gibbous, 97% visible
Pressure 30.17 in
Visibility 9.0 miles
Clouds Mostly Cloudy 4300 ft
Overcast 5500 ft
Windchill 40 °F
Dew Point 36 °F
Humidity 87%
Rainfall 0.04 in
Snow Depth Not available.
UV 0.0 out of 12
Pollen .30 out of 12
Air Quality Not available.
Flu Activity Not available.
METAR KBOI 020053Z 14010KT 9SM -RA BKN043 OVC055 04/01 A3013 RMK AO2 RAB40 SLP216 P0000 T00390011

More Conditions Fewer Conditions

Pressure 30.17 in
Visibility 9.0 miles
Clouds Mostly Cloudy 4300 ft
Overcast 5500 ft
Windchill 40 °F
Dew Point 36 °F
Humidity 87%
Rainfall 0.04 in
Snow Depth Not available.
UV 0.0 out of 12
Pollen .30 out of 12
Air Quality Not available.
Flu Activity Not available.
METAR KBOI 020053Z 14010KT 9SM -RA BKN043 OVC055 04/01 A3013 RMK AO2 RAB40 SLP216 P0000 T00390011

More Conditions Fewer Conditions

10-Day Weather Forecast

Almanac

Astronomy

Feb. 01, 2015 Rise Set
Actual Time
Civil Twilight
Nautical Twilight
Astronomical Twilight
Moon
Length of Visible Light
Length of Day
Tomorrow will be .
, % of the Moon is Illuminated

Today's Extremes

State Highs State Lows

Community

WunderPhotos

Upload Photos

1,792,646 photos uploaded!

WunderBlogs® & News

Nearby

Air Quality

  Air Quality AQ Index Pollutant
Not available.

Snow Depth

Station Depth Elevation

Earthquake Activity

City Distance Mag. Time & Date
Minimum magnitude displayed is 2.5.

Coastal Water Temperatures

Place Temperature

Nearby Weather Stations